sensor_id;sensor_type;location;lat;lon;timestamp;pressure;altitude;pressure_sealevel;temperature;humidity
63694;BME280;49839;51.798;10.954;2022-10-31T00:01:22;99449.88;;;15.36;nan
63694;BME280;49839;51.798;10.954;2022-10-31T00:03:50;99457.41;;;15.30;nan
63694;BME280;49839;51.798;10.954;2022-10-31T00:06:18;99466.63;;;15.24;nan
63694;BME280;49839;51.798;10.954;2022-10-31T00:08:45;99466.09;;;15.19;nan
63694;BME280;49839;51.798;10.954;2022-10-31T00:11:13;99465.66;;;15.12;nan
63694;BME280;49839;51.798;10.954;2022-10-31T00:13:41;99456.78;;;15.13;nan
63694;BME280;49839;51.798;10.954;2022-10-31T00:16:14;99467.47;;;15.12;nan
63694;BME280;49839;51.798;10.954;2022-10-31T00:18:42;99473.84;;;15.09;nan
63694;BME280;49839;51.798;10.954;2022-10-31T00:21:10;99473.84;;;15.09;nan
63694;BME280;49839;51.798;10.954;2022-10-31T00:23:38;99475.41;;;14.99;nan
63694;BME280;49839;51.798;10.954;2022-10-31T00:26:05;99487.25;;;14.81;nan
63694;BME280;49839;51.798;10.954;2022-10-31T00:28:33;99484.25;;;14.73;nan
63694;BME280;49839;51.798;10.954;2022-10-31T00:31:01;99480.00;;;14.70;nan
63694;BME280;49839;51.798;10.954;2022-10-31T00:33:33;99478.50;;;14.66;nan
63694;BME280;49839;51.798;10.954;2022-10-31T00:36:01;99492.72;;;14.65;nan
63694;BME280;49839;51.798;10.954;2022-10-31T00:38:28;99488.25;;;14.66;nan
63694;BME280;49839;51.798;10.954;2022-10-31T00:40:56;99492.06;;;14.61;nan
63694;BME280;49839;51.798;10.954;2022-10-31T00:43:24;99492.28;;;14.58;nan
63694;BME280;49839;51.798;10.954;2022-10-31T00:45:51;99496.06;;;14.54;nan
63694;BME280;49839;51.798;10.954;2022-10-31T00:48:19;99500.50;;;14.54;nan
63694;BME280;49839;51.798;10.954;2022-10-31T00:50:48;99497.13;;;14.52;nan
63694;BME280;49839;51.798;10.954;2022-10-31T00:53:16;99503.38;;;14.51;nan
63694;BME280;49839;51.798;10.954;2022-10-31T00:55:44;99495.97;;;14.42;nan
63694;BME280;49839;51.798;10.954;2022-10-31T00:58:11;99496.28;;;14.37;nan
63694;BME280;49839;51.798;10.954;2022-10-31T01:00:40;99490.16;;;14.36;nan
63694;BME280;49839;51.798;10.954;2022-10-31T01:03:10;99501.13;;;14.30;nan
63694;BME280;49839;51.798;10.954;2022-10-31T01:05:37;99493.66;;;14.23;nan
63694;BME280;49839;51.798;10.954;2022-10-31T01:08:06;99489.31;;;14.22;nan
63694;BME280;49839;51.798;10.954;2022-10-31T01:10:34;99495.06;;;14.28;nan
63694;BME280;49839;51.798;10.954;2022-10-31T01:13:01;99495.84;;;14.30;nan
63694;BME280;49839;51.798;10.954;2022-10-31T01:15:29;99495.28;;;14.25;nan
63694;BME280;49839;51.798;10.954;2022-10-31T01:17:57;99496.69;;;14.17;nan
63694;BME280;49839;51.798;10.954;2022-10-31T01:20:24;99506.44;;;14.16;nan
63694;BME280;49839;51.798;10.954;2022-10-31T01:22:52;99497.56;;;14.17;nan
63694;BME280;49839;51.798;10.954;2022-10-31T01:25:21;99503.63;;;14.19;nan
63694;BME280;49839;51.798;10.954;2022-10-31T01:27:49;99500.22;;;14.17;nan
63694;BME280;49839;51.798;10.954;2022-10-31T01:30:16;99495.78;;;14.18;nan
63694;BME280;49839;51.798;10.954;2022-10-31T01:32:44;99497.25;;;14.22;nan
63694;BME280;49839;51.798;10.954;2022-10-31T01:35:12;99507.69;;;14.25;nan
63694;BME280;49839;51.798;10.954;2022-10-31T01:37:39;99498.94;;;14.23;nan
63694;BME280;49839;51.798;10.954;2022-10-31T01:40:08;99499.91;;;14.22;nan
63694;BME280;49839;51.798;10.954;2022-10-31T01:42:37;99508.63;;;14.24;nan
63694;BME280;49839;51.798;10.954;2022-10-31T01:45:09;99504.47;;;14.20;nan
63694;BME280;49839;51.798;10.954;2022-10-31T01:47:41;99509.88;;;14.18;nan
63694;BME280;49839;51.798;10.954;2022-10-31T01:50:14;99506.75;;;14.12;nan
63694;BME280;49839;51.798;10.954;2022-10-31T01:52:44;99501.72;;;14.07;nan
63694;BME280;49839;51.798;10.954;2022-10-31T01:55:15;99502.97;;;14.01;nan
63694;BME280;49839;51.798;10.954;2022-10-31T01:57:47;99510.34;;;13.96;nan
63694;BME280;49839;51.798;10.954;2022-10-31T02:00:15;99516.69;;;13.94;nan
63694;BME280;49839;51.798;10.954;2022-10-31T02:02:45;99514.16;;;13.92;nan
63694;BME280;49839;51.798;10.954;2022-10-31T02:05:16;99513.09;;;13.95;nan
63694;BME280;49839;51.798;10.954;2022-10-31T02:07:49;99509.59;;;13.94;nan
63694;BME280;49839;51.798;10.954;2022-10-31T02:10:21;99511.50;;;13.92;nan
63694;BME280;49839;51.798;10.954;2022-10-31T02:12:50;99506.38;;;13.89;nan
63694;BME280;49839;51.798;10.954;2022-10-31T02:15:18;99503.94;;;13.86;nan
63694;BME280;49839;51.798;10.954;2022-10-31T02:17:46;99505.63;;;13.87;nan
63694;BME280;49839;51.798;10.954;2022-10-31T02:20:16;99511.19;;;13.82;nan
63694;BME280;49839;51.798;10.954;2022-10-31T02:23:18;99512.53;;;13.75;nan
63694;BME280;49839;51.798;10.954;2022-10-31T02:29:02;99520.59;;;13.74;nan
63694;BME280;49839;51.798;10.954;2022-10-31T02:31:41;99519.72;;;13.73;nan
63694;BME280;49839;51.798;10.954;2022-10-31T02:34:17;99518.78;;;13.74;nan
63694;BME280;49839;51.798;10.954;2022-10-31T02:36:51;99521.81;;;13.68;nan
63694;BME280;49839;51.798;10.954;2022-10-31T02:39:24;99525.56;;;13.64;nan
63694;BME280;49839;51.798;10.954;2022-10-31T02:42:01;99527.47;;;13.62;nan
63694;BME280;49839;51.798;10.954;2022-10-31T02:44:36;99530.88;;;13.64;nan
63694;BME280;49839;51.798;10.954;2022-10-31T02:47:11;99535.22;;;13.65;nan
63694;BME280;49839;51.798;10.954;2022-10-31T02:49:43;99533.63;;;13.63;nan
63694;BME280;49839;51.798;10.954;2022-10-31T02:52:16;99538.34;;;13.58;nan
63694;BME280;49839;51.798;10.954;2022-10-31T02:54:46;99540.22;;;13.55;nan
63694;BME280;49839;51.798;10.954;2022-10-31T02:57:18;99541.19;;;13.54;nan
63694;BME280;49839;51.798;10.954;2022-10-31T02:59:50;99543.16;;;13.51;nan
63694;BME280;49839;51.798;10.954;2022-10-31T03:02:40;99556.84;;;13.43;nan
63694;BME280;49839;51.798;10.954;2022-10-31T03:05:32;99550.13;;;13.38;nan
63694;BME280;49839;51.798;10.954;2022-10-31T03:08:09;99551.25;;;13.34;nan
63694;BME280;49839;51.798;10.954;2022-10-31T03:10:42;99553.97;;;13.32;nan
63694;BME280;49839;51.798;10.954;2022-10-31T03:13:19;99549.81;;;13.28;nan
63694;BME280;49839;51.798;10.954;2022-10-31T03:16:01;99548.03;;;13.28;nan
63694;BME280;49839;51.798;10.954;2022-10-31T03:18:37;99542.72;;;13.28;nan
63694;BME280;49839;51.798;10.954;2022-10-31T03:21:09;99550.47;;;13.32;nan
63694;BME280;49839;51.798;10.954;2022-10-31T03:23:42;99555.78;;;13.32;nan
63694;BME280;49839;51.798;10.954;2022-10-31T03:26:13;99564.06;;;13.25;nan
63694;BME280;49839;51.798;10.954;2022-10-31T03:28:43;99568.84;;;13.19;nan
63694;BME280;49839;51.798;10.954;2022-10-31T03:31:16;99559.19;;;13.18;nan
63694;BME280;49839;51.798;10.954;2022-10-31T03:33:47;99570.81;;;13.15;nan
63694;BME280;49839;51.798;10.954;2022-10-31T03:36:16;99570.13;;;13.12;nan
63694;BME280;49839;51.798;10.954;2022-10-31T03:38:45;99572.97;;;13.09;nan
63694;BME280;49839;51.798;10.954;2022-10-31T03:41:16;99579.97;;;13.10;nan
63694;BME280;49839;51.798;10.954;2022-10-31T03:43:51;99576.38;;;13.11;nan
63694;BME280;49839;51.798;10.954;2022-10-31T03:46:21;99582.41;;;13.13;nan
63694;BME280;49839;51.798;10.954;2022-10-31T03:48:50;99583.00;;;13.18;nan
63694;BME280;49839;51.798;10.954;2022-10-31T03:51:22;99581.75;;;13.25;nan
63694;BME280;49839;51.798;10.954;2022-10-31T03:53:56;99587.63;;;13.30;nan
63694;BME280;49839;51.798;10.954;2022-10-31T03:56:29;99599.91;;;13.31;nan
63694;BME280;49839;51.798;10.954;2022-10-31T03:59:02;99593.41;;;13.37;nan
63694;BME280;49839;51.798;10.954;2022-10-31T04:01:34;99585.22;;;13.41;nan
63694;BME280;49839;51.798;10.954;2022-10-31T04:04:06;99591.34;;;13.42;nan
63694;BME280;49839;51.798;10.954;2022-10-31T04:06:36;99590.59;;;13.40;nan
63694;BME280;49839;51.798;10.954;2022-10-31T04:09:05;99594.09;;;13.40;nan
63694;BME280;49839;51.798;10.954;2022-10-31T04:11:36;99594.38;;;13.36;nan
63694;BME280;49839;51.798;10.954;2022-10-31T04:14:06;99592.81;;;13.32;nan
63694;BME280;49839;51.798;10.954;2022-10-31T04:16:35;99595.81;;;13.25;nan
63694;BME280;49839;51.798;10.954;2022-10-31T04:19:05;99592.63;;;13.20;nan
63694;BME280;49839;51.798;10.954;2022-10-31T04:21:33;99601.44;;;13.19;nan
63694;BME280;49839;51.798;10.954;2022-10-31T04:24:01;99598.78;;;13.19;nan
63694;BME280;49839;51.798;10.954;2022-10-31T04:26:28;99599.75;;;13.18;nan
63694;BME280;49839;51.798;10.954;2022-10-31T04:28:56;99593.94;;;13.12;nan
63694;BME280;49839;51.798;10.954;2022-10-31T04:31:24;99598.50;;;13.10;nan
63694;BME280;49839;51.798;10.954;2022-10-31T04:33:52;99603.03;;;13.08;nan
63694;BME280;49839;51.798;10.954;2022-10-31T04:36:21;99601.38;;;13.05;nan
63694;BME280;49839;51.798;10.954;2022-10-31T04:38:48;99601.47;;;13.04;nan
63694;BME280;49839;51.798;10.954;2022-10-31T04:41:16;99605.06;;;13.02;nan
63694;BME280;49839;51.798;10.954;2022-10-31T04:43:43;99605.16;;;13.01;nan
63694;BME280;49839;51.798;10.954;2022-10-31T04:46:11;99604.47;;;12.97;nan
63694;BME280;49839;51.798;10.954;2022-10-31T04:48:39;99604.47;;;12.97;nan
63694;BME280;49839;51.798;10.954;2022-10-31T04:51:06;99600.97;;;12.97;nan
63694;BME280;49839;51.798;10.954;2022-10-31T04:53:35;99607.88;;;12.99;nan
63694;BME280;49839;51.798;10.954;2022-10-31T04:56:04;99604.47;;;12.97;nan
63694;BME280;49839;51.798;10.954;2022-10-31T04:58:31;99608.16;;;12.95;nan
63694;BME280;49839;51.798;10.954;2022-10-31T05:00:59;99615.41;;;12.91;nan
63694;BME280;49839;51.798;10.954;2022-10-31T05:03:27;99612.66;;;12.93;nan
63694;BME280;49839;51.798;10.954;2022-10-31T05:05:54;99617.28;;;12.89;nan
63694;BME280;49839;51.798;10.954;2022-10-31T05:08:22;99604.91;;;12.90;nan
63694;BME280;49839;51.798;10.954;2022-10-31T05:10:51;99600.28;;;12.93;nan
63694;BME280;49839;51.798;10.954;2022-10-31T05:13:19;99608.31;;;12.92;nan
63694;BME280;49839;51.798;10.954;2022-10-31T05:15:51;99611.50;;;12.83;nan
63694;BME280;49839;51.798;10.954;2022-10-31T05:18:19;99603.63;;;12.81;nan
63694;BME280;49839;51.798;10.954;2022-10-31T05:20:47;99599.22;;;12.82;nan
63694;BME280;49839;51.798;10.954;2022-10-31T05:23:14;99607.91;;;12.84;nan
63694;BME280;49839;51.798;10.954;2022-10-31T05:25:42;99607.81;;;12.85;nan
63694;BME280;49839;51.798;10.954;2022-10-31T05:28:11;99614.72;;;12.88;nan
63694;BME280;49839;51.798;10.954;2022-10-31T05:30:39;99609.59;;;12.85;nan
63694;BME280;49839;51.798;10.954;2022-10-31T05:33:06;99619.34;;;12.84;nan
63694;BME280;49839;51.798;10.954;2022-10-31T05:35:34;99629.31;;;12.79;nan
63694;BME280;49839;51.798;10.954;2022-10-31T05:38:02;99624.47;;;12.71;nan
63694;BME280;49839;51.798;10.954;2022-10-31T05:40:29;99617.63;;;12.67;nan
63694;BME280;49839;51.798;10.954;2022-10-31T05:42:57;99613.53;;;12.62;nan
63694;BME280;49839;51.798;10.954;2022-10-31T05:45:27;99622.41;;;12.61;nan
63694;BME280;49839;51.798;10.954;2022-10-31T05:47:56;99623.53;;;12.57;nan
63694;BME280;49839;51.798;10.954;2022-10-31T05:50:26;99630.66;;;12.55;nan
63694;BME280;49839;51.798;10.954;2022-10-31T05:52:55;99624.38;;;12.57;nan
63694;BME280;49839;51.798;10.954;2022-10-31T05:55:23;99623.53;;;12.57;nan
63694;BME280;49839;51.798;10.954;2022-10-31T05:57:52;99623.44;;;12.58;nan
63694;BME280;49839;51.798;10.954;2022-10-31T06:00:20;99618.06;;;12.60;nan
63694;BME280;49839;51.798;10.954;2022-10-31T06:02:57;99609.13;;;12.62;nan
63694;BME280;49839;51.798;10.954;2022-10-31T06:05:25;99609.78;;;12.66;nan
63694;BME280;49839;51.798;10.954;2022-10-31T06:07:53;99620.19;;;12.69;nan
63694;BME280;49839;51.798;10.954;2022-10-31T06:10:21;99624.88;;;12.64;nan
63694;BME280;49839;51.798;10.954;2022-10-31T06:12:49;99628.69;;;12.42;nan
63694;BME280;49839;51.798;10.954;2022-10-31T06:15:16;99630.13;;;12.32;nan
63694;BME280;49839;51.798;10.954;2022-10-31T06:17:59;99628.66;;;12.27;nan
63694;BME280;49839;51.798;10.954;2022-10-31T06:20:27;99622.44;;;12.28;nan
63694;BME280;49839;51.798;10.954;2022-10-31T06:22:55;99631.13;;;12.30;nan
63694;BME280;49839;51.798;10.954;2022-10-31T06:25:22;99637.88;;;12.35;nan
63694;BME280;49839;51.798;10.954;2022-10-31T06:27:50;99636.59;;;12.42;nan
63694;BME280;49839;51.798;10.954;2022-10-31T06:30:18;99640.03;;;12.44;nan
63694;BME280;49839;51.798;10.954;2022-10-31T06:32:46;99642.41;;;12.49;nan
63694;BME280;49839;51.798;10.954;2022-10-31T06:35:15;99648.59;;;12.50;nan
63694;BME280;49839;51.798;10.954;2022-10-31T06:37:43;99651.22;;;12.50;nan
63694;BME280;49839;51.798;10.954;2022-10-31T06:40:17;99655.31;;;12.55;nan
63694;BME280;49839;51.798;10.954;2022-10-31T06:42:45;99651.47;;;12.61;nan
63694;BME280;49839;51.798;10.954;2022-10-31T06:45:13;99660.03;;;12.66;nan
63694;BME280;49839;51.798;10.954;2022-10-31T06:47:40;99661.38;;;12.73;nan
63694;BME280;49839;51.798;10.954;2022-10-31T06:50:29;99667.09;;;12.81;nan
63694;BME280;49839;51.798;10.954;2022-10-31T06:52:58;99674.63;;;12.89;nan
63694;BME280;49839;51.798;10.954;2022-10-31T06:55:26;99678.38;;;13.00;nan
63694;BME280;49839;51.798;10.954;2022-10-31T06:57:55;99677.69;;;12.97;nan
63694;BME280;49839;51.798;10.954;2022-10-31T07:00:28;99677.19;;;12.90;nan
63694;BME280;49839;51.798;10.954;2022-10-31T07:02:59;99673.59;;;12.91;nan
63694;BME280;49839;51.798;10.954;2022-10-31T07:05:27;99674.69;;;12.87;nan
63694;BME280;49839;51.798;10.954;2022-10-31T07:07:58;99679.31;;;12.84;nan
63694;BME280;49839;51.798;10.954;2022-10-31T07:10:29;99684.19;;;12.91;nan
63694;BME280;49839;51.798;10.954;2022-10-31T07:13:01;99688.09;;;13.00;nan
63694;BME280;49839;51.798;10.954;2022-10-31T07:15:32;99694.50;;;13.12;nan
63694;BME280;49839;51.798;10.954;2022-10-31T07:18:00;99693.31;;;13.17;nan
63694;BME280;49839;51.798;10.954;2022-10-31T07:20:28;99697.56;;;13.20;nan
63694;BME280;49839;51.798;10.954;2022-10-31T07:22:57;99695.84;;;13.19;nan
63694;BME280;49839;51.798;10.954;2022-10-31T07:25:25;99698.97;;;13.27;nan
63694;BME280;49839;51.798;10.954;2022-10-31T07:27:53;99702.53;;;13.42;nan
63694;BME280;49839;51.798;10.954;2022-10-31T07:30:21;99699.00;;;13.57;nan
63694;BME280;49839;51.798;10.954;2022-10-31T07:32:49;99701.69;;;13.71;nan
63694;BME280;49839;51.798;10.954;2022-10-31T07:35:19;99700.81;;;13.87;nan
63694;BME280;49839;51.798;10.954;2022-10-31T07:37:47;99702.75;;;13.99;nan
63694;BME280;49839;51.798;10.954;2022-10-31T07:40:16;99699.38;;;14.11;nan
63694;BME280;49839;51.798;10.954;2022-10-31T07:42:46;99703.50;;;14.15;nan
63694;BME280;49839;51.798;10.954;2022-10-31T07:45:14;99707.50;;;14.22;nan
63694;BME280;49839;51.798;10.954;2022-10-31T07:47:44;99701.66;;;14.31;nan
63694;BME280;49839;51.798;10.954;2022-10-31T07:50:15;99711.41;;;14.45;nan
63694;BME280;49839;51.798;10.954;2022-10-31T07:52:43;99707.38;;;14.54;nan
63694;BME280;49839;51.798;10.954;2022-10-31T07:55:11;99706.72;;;14.65;nan
63694;BME280;49839;51.798;10.954;2022-10-31T07:57:41;99702.72;;;14.72;nan
63694;BME280;49839;51.798;10.954;2022-10-31T08:00:09;99703.88;;;14.82;nan
63694;BME280;49839;51.798;10.954;2022-10-31T08:02:37;99700.63;;;14.91;nan
63694;BME280;49839;51.798;10.954;2022-10-31T08:05:05;99701.53;;;15.04;nan
63694;BME280;49839;51.798;10.954;2022-10-31T08:07:36;99695.47;;;15.16;nan
63694;BME280;49839;51.798;10.954;2022-10-31T08:10:04;99703.59;;;15.28;nan
63694;BME280;49839;51.798;10.954;2022-10-31T08:12:32;99707.88;;;15.43;nan
63694;BME280;49839;51.798;10.954;2022-10-31T08:15:01;99700.06;;;15.54;nan
63694;BME280;49839;51.798;10.954;2022-10-31T08:17:29;99706.09;;;15.70;nan
63694;BME280;49839;51.798;10.954;2022-10-31T08:19:57;99702.22;;;15.89;nan
63694;BME280;49839;51.798;10.954;2022-10-31T08:22:24;99692.38;;;16.04;nan
63694;BME280;49839;51.798;10.954;2022-10-31T08:24:52;99692.47;;;16.15;nan
63694;BME280;49839;51.798;10.954;2022-10-31T08:27:20;99692.59;;;16.26;nan
63694;BME280;49839;51.798;10.954;2022-10-31T08:29:47;99688.34;;;16.36;nan
63694;BME280;49839;51.798;10.954;2022-10-31T08:32:16;99693.97;;;16.44;nan
63694;BME280;49839;51.798;10.954;2022-10-31T08:34:44;99684.38;;;16.80;nan
63694;BME280;49839;51.798;10.954;2022-10-31T08:37:12;99682.97;;;17.48;nan
63694;BME280;49839;51.798;10.954;2022-10-31T08:39:45;99676.44;;;18.11;nan
63694;BME280;49839;51.798;10.954;2022-10-31T08:42:13;99677.56;;;18.64;nan
63694;BME280;49839;51.798;10.954;2022-10-31T08:44:40;99666.59;;;19.24;nan
63694;BME280;49839;51.798;10.954;2022-10-31T08:47:08;99674.16;;;19.83;nan
63694;BME280;49839;51.798;10.954;2022-10-31T08:49:37;99666.47;;;20.31;nan
63694;BME280;49839;51.798;10.954;2022-10-31T08:52:05;99660.09;;;20.74;nan
63694;BME280;49839;51.798;10.954;2022-10-31T08:54:37;99662.09;;;20.91;nan
63694;BME280;49839;51.798;10.954;2022-10-31T08:57:04;99654.69;;;21.14;nan
63694;BME280;49839;51.798;10.954;2022-10-31T08:59:32;99665.34;;;21.45;nan
63694;BME280;49839;51.798;10.954;2022-10-31T09:02:00;99659.97;;;21.93;nan
63694;BME280;49839;51.798;10.954;2022-10-31T09:04:29;99659.50;;;22.36;nan
63694;BME280;49839;51.798;10.954;2022-10-31T09:06:58;99657.94;;;22.71;nan
63694;BME280;49839;51.798;10.954;2022-10-31T09:09:45;99654.44;;;22.98;nan
63694;BME280;49839;51.798;10.954;2022-10-31T09:12:13;99652.91;;;22.95;nan
63694;BME280;49839;51.798;10.954;2022-10-31T09:14:41;99641.63;;;22.82;nan
63694;BME280;49839;51.798;10.954;2022-10-31T09:17:09;99646.00;;;22.83;nan
63694;BME280;49839;51.798;10.954;2022-10-31T09:19:36;99643.94;;;23.22;nan
63694;BME280;49839;51.798;10.954;2022-10-31T09:22:06;99649.28;;;23.68;nan
63694;BME280;49839;51.798;10.954;2022-10-31T09:24:34;99643.78;;;23.95;nan
63694;BME280;49839;51.798;10.954;2022-10-31T09:27:01;99648.41;;;24.29;nan
63694;BME280;49839;51.798;10.954;2022-10-31T09:33:17;99640.50;;;24.96;nan
63694;BME280;49839;51.798;10.954;2022-10-31T09:35:45;99648.78;;;25.02;nan
63694;BME280;49839;51.798;10.954;2022-10-31T09:38:15;99641.47;;;25.21;nan
63694;BME280;49839;51.798;10.954;2022-10-31T09:40:47;99642.84;;;25.49;nan
63694;BME280;49839;51.798;10.954;2022-10-31T09:43:21;99638.63;;;25.55;nan
63694;BME280;49839;51.798;10.954;2022-10-31T09:46:00;99634.94;;;25.64;nan
63694;BME280;49839;51.798;10.954;2022-10-31T09:48:40;99636.94;;;25.62;nan
63694;BME280;49839;51.798;10.954;2022-10-31T09:51:15;99631.69;;;24.85;nan
63694;BME280;49839;51.798;10.954;2022-10-31T09:53:49;99636.31;;;24.59;nan
63694;BME280;49839;51.798;10.954;2022-10-31T09:56:20;99629.88;;;24.86;nan
63694;BME280;49839;51.798;10.954;2022-10-31T09:58:50;99630.84;;;25.19;nan
63694;BME280;49839;51.798;10.954;2022-10-31T10:01:28;99629.00;;;25.20;nan
63694;BME280;49839;51.798;10.954;2022-10-31T10:04:02;99624.44;;;25.20;nan
63694;BME280;49839;51.798;10.954;2022-10-31T10:06:35;99626.16;;;25.37;nan
63694;BME280;49839;51.798;10.954;2022-10-31T10:09:05;99622.22;;;25.24;nan
63694;BME280;49839;51.798;10.954;2022-10-31T10:11:46;99628.16;;;25.19;nan
63694;BME280;49839;51.798;10.954;2022-10-31T10:14:35;99627.50;;;25.33;nan
63694;BME280;49839;51.798;10.954;2022-10-31T10:17:17;99630.56;;;25.71;nan
63694;BME280;49839;51.798;10.954;2022-10-31T10:20:03;99623.50;;;25.78;nan
63694;BME280;49839;51.798;10.954;2022-10-31T10:22:40;99620.63;;;26.04;nan
63694;BME280;49839;51.798;10.954;2022-10-31T10:25:16;99618.44;;;25.83;nan
63694;BME280;49839;51.798;10.954;2022-10-31T10:27:53;99621.13;;;25.59;nan
63694;BME280;49839;51.798;10.954;2022-10-31T10:30:25;99617.53;;;25.42;nan
63694;BME280;49839;51.798;10.954;2022-10-31T10:32:57;99615.03;;;25.41;nan
63694;BME280;49839;51.798;10.954;2022-10-31T10:35:30;99612.53;;;25.63;nan
63694;BME280;49839;51.798;10.954;2022-10-31T10:38:02;99606.41;;;25.70;nan
63694;BME280;49839;51.798;10.954;2022-10-31T10:40:32;99606.25;;;25.63;nan
63694;BME280;49839;51.798;10.954;2022-10-31T10:43:19;99603.38;;;25.40;nan
63694;BME280;49839;51.798;10.954;2022-10-31T10:46:04;99594.31;;;24.91;nan
63694;BME280;49839;51.798;10.954;2022-10-31T10:48:56;99590.66;;;24.23;nan
63694;BME280;49839;51.798;10.954;2022-10-31T10:51:32;99601.22;;;23.91;nan
63694;BME280;49839;51.798;10.954;2022-10-31T10:54:39;99599.84;;;24.13;nan
63694;BME280;49839;51.798;10.954;2022-10-31T10:57:20;99589.25;;;23.67;nan
63694;BME280;49839;51.798;10.954;2022-10-31T10:59:50;99597.63;;;23.11;nan
63694;BME280;49839;51.798;10.954;2022-10-31T11:02:19;99596.50;;;22.58;nan
63694;BME280;49839;51.798;10.954;2022-10-31T11:04:50;99588.91;;;22.16;nan
63694;BME280;49839;51.798;10.954;2022-10-31T11:07:18;99585.56;;;21.76;nan
63694;BME280;49839;51.798;10.954;2022-10-31T11:09:46;99582.94;;;21.37;nan
63694;BME280;49839;51.798;10.954;2022-10-31T11:12:20;99583.44;;;21.12;nan
63694;BME280;49839;51.798;10.954;2022-10-31T11:14:52;99585.69;;;20.87;nan
63694;BME280;49839;51.798;10.954;2022-10-31T11:17:28;99580.84;;;20.62;nan
63694;BME280;49839;51.798;10.954;2022-10-31T11:20:02;99578.63;;;20.36;nan
63694;BME280;49839;51.798;10.954;2022-10-31T11:22:30;99578.94;;;20.22;nan
63694;BME280;49839;51.798;10.954;2022-10-31T11:24:59;99583.56;;;20.10;nan
63694;BME280;49839;51.798;10.954;2022-10-31T11:27:28;99579.28;;;19.98;nan
63694;BME280;49839;51.798;10.954;2022-10-31T11:30:04;99575.97;;;19.85;nan
63694;BME280;49839;51.798;10.954;2022-10-31T11:32:33;99570.53;;;19.75;nan
63694;BME280;49839;51.798;10.954;2022-10-31T11:35:16;99569.22;;;19.69;nan
63694;BME280;49839;51.798;10.954;2022-10-31T11:37:46;99570.53;;;19.54;nan
63694;BME280;49839;51.798;10.954;2022-10-31T11:40:16;99567.84;;;19.54;nan
63694;BME280;49839;51.798;10.954;2022-10-31T11:42:46;99568.22;;;19.49;nan
63694;BME280;49839;51.798;10.954;2022-10-31T11:45:16;99567.13;;;19.52;nan
63694;BME280;49839;51.798;10.954;2022-10-31T11:47:47;99570.84;;;19.40;nan
63694;BME280;49839;51.798;10.954;2022-10-31T11:50:21;99567.38;;;19.28;nan
63694;BME280;49839;51.798;10.954;2022-10-31T11:52:51;99564.09;;;19.25;nan
63694;BME280;49839;51.798;10.954;2022-10-31T11:55:30;99560.84;;;19.21;nan
63694;BME280;49839;51.798;10.954;2022-10-31T11:58:00;99552.00;;;19.20;nan
63694;BME280;49839;51.798;10.954;2022-10-31T12:00:29;99554.31;;;19.14;nan
63694;BME280;49839;51.798;10.954;2022-10-31T12:03:10;99553.00;;;19.08;nan
63694;BME280;49839;51.798;10.954;2022-10-31T12:05:40;99553.25;;;19.05;nan
63694;BME280;49839;51.798;10.954;2022-10-31T12:08:09;99542.81;;;19.02;nan
63694;BME280;49839;51.798;10.954;2022-10-31T12:10:46;99543.69;;;19.03;nan
63694;BME280;49839;51.798;10.954;2022-10-31T12:13:30;99544.78;;;19.00;nan
63694;BME280;49839;51.798;10.954;2022-10-31T12:16:04;99541.13;;;19.01;nan
63694;BME280;49839;51.798;10.954;2022-10-31T12:18:49;99542.19;;;19.10;nan
63694;BME280;49839;51.798;10.954;2022-10-31T12:21:32;99534.31;;;19.08;nan
63694;BME280;49839;51.798;10.954;2022-10-31T12:24:10;99535.28;;;19.07;nan
63694;BME280;49839;51.798;10.954;2022-10-31T12:26:44;99521.81;;;19.09;nan
63694;BME280;49839;51.798;10.954;2022-10-31T12:29:29;99531.78;;;19.07;nan
63694;BME280;49839;51.798;10.954;2022-10-31T12:32:13;99518.53;;;19.05;nan
63694;BME280;49839;51.798;10.954;2022-10-31T12:34:54;99517.53;;;19.06;nan
63694;BME280;49839;51.798;10.954;2022-10-31T12:37:37;99521.00;;;18.97;nan
63694;BME280;49839;51.798;10.954;2022-10-31T12:40:32;99520.53;;;18.92;nan
63694;BME280;49839;51.798;10.954;2022-10-31T12:43:13;99518.25;;;18.87;nan
63694;BME280;49839;51.798;10.954;2022-10-31T12:45:52;99515.44;;;18.89;nan
63694;BME280;49839;51.798;10.954;2022-10-31T12:48:47;99510.25;;;18.87;nan
63694;BME280;49839;51.798;10.954;2022-10-31T12:51:29;99511.50;;;18.72;nan
63694;BME280;49839;51.798;10.954;2022-10-31T12:54:15;99507.25;;;18.70;nan
63694;BME280;49839;51.798;10.954;2022-10-31T12:56:51;99499.38;;;18.57;nan
63694;BME280;49839;51.798;10.954;2022-10-31T12:59:30;99495.16;;;18.43;nan
63694;BME280;49839;51.798;10.954;2022-10-31T13:02:10;99489.94;;;18.41;nan
63694;BME280;49839;51.798;10.954;2022-10-31T13:04:46;99489.00;;;18.43;nan
63694;BME280;49839;51.798;10.954;2022-10-31T13:07:19;99487.78;;;18.35;nan
63694;BME280;49839;51.798;10.954;2022-10-31T13:09:54;99487.19;;;18.32;nan
63694;BME280;49839;51.798;10.954;2022-10-31T13:12:24;99483.53;;;18.22;nan
63694;BME280;49839;51.798;10.954;2022-10-31T13:14:57;99481.63;;;18.12;nan
63694;BME280;49839;51.798;10.954;2022-10-31T13:17:32;99473.97;;;18.08;nan
63694;BME280;49839;51.798;10.954;2022-10-31T13:20:13;99475.31;;;18.02;nan
63694;BME280;49839;51.798;10.954;2022-10-31T13:22:46;99474.00;;;17.97;nan
63694;BME280;49839;51.798;10.954;2022-10-31T13:25:18;99470.25;;;17.99;nan
63694;BME280;49839;51.798;10.954;2022-10-31T13:27:51;99476.28;;;18.01;nan
63694;BME280;49839;51.798;10.954;2022-10-31T13:30:21;99476.56;;;17.98;nan
63694;BME280;49839;51.798;10.954;2022-10-31T13:32:55;99467.34;;;17.91;nan
63694;BME280;49839;51.798;10.954;2022-10-31T13:35:28;99468.19;;;17.92;nan
63694;BME280;49839;51.798;10.954;2022-10-31T13:38:09;99457.75;;;17.89;nan
63694;BME280;49839;51.798;10.954;2022-10-31T13:40:44;99461.75;;;17.83;nan